sensor_id;sensor_type;location;lat;lon;timestamp;temperature;humidity
9943;DHT22;5010;45.080;7.634;2023-02-28T00:01:14;20.20;1.00
9943;DHT22;5010;45.080;7.634;2023-02-28T00:03:41;20.20;1.00
9943;DHT22;5010;45.080;7.634;2023-02-28T00:06:09;20.20;1.00
9943;DHT22;5010;45.080;7.634;2023-02-28T00:08:36;20.20;1.00
9943;DHT22;5010;45.080;7.634;2023-02-28T00:11:03;20.20;1.00
9943;DHT22;5010;45.080;7.634;2023-02-28T00:13:34;20.10;1.00
9943;DHT22;5010;45.080;7.634;2023-02-28T00:16:03;20.10;1.00
9943;DHT22;5010;45.080;7.634;2023-02-28T00:18:30;20.10;1.00
9943;DHT22;5010;45.080;7.634;2023-02-28T00:20:57;20.10;1.00
9943;DHT22;5010;45.080;7.634;2023-02-28T00:23:24;20.10;1.00
9943;DHT22;5010;45.080;7.634;2023-02-28T00:25:51;20.00;1.00
9943;DHT22;5010;45.080;7.634;2023-02-28T00:28:18;20.00;1.00
9943;DHT22;5010;45.080;7.634;2023-02-28T00:30:47;20.00;1.00
9943;DHT22;5010;45.080;7.634;2023-02-28T00:33:14;20.00;1.00
9943;DHT22;5010;45.080;7.634;2023-02-28T00:35:41;20.00;1.00
9943;DHT22;5010;45.080;7.634;2023-02-28T00:38:09;20.00;1.00
9943;DHT22;5010;45.080;7.634;2023-02-28T00:40:36;20.00;1.00
9943;DHT22;5010;45.080;7.634;2023-02-28T00:43:02;20.00;1.00
9943;DHT22;5010;45.080;7.634;2023-02-28T00:45:29;19.90;1.00
9943;DHT22;5010;45.080;7.634;2023-02-28T00:47:57;19.90;1.00
9943;DHT22;5010;45.080;7.634;2023-02-28T00:50:24;19.90;1.00
9943;DHT22;5010;45.080;7.634;2023-02-28T00:52:51;19.90;1.00
9943;DHT22;5010;45.080;7.634;2023-02-28T00:55:18;19.90;1.00
9943;DHT22;5010;45.080;7.634;2023-02-28T00:57:45;19.90;1.00
9943;DHT22;5010;45.080;7.634;2023-02-28T01:00:12;19.90;1.00
9943;DHT22;5010;45.080;7.634;2023-02-28T01:02:39;19.90;1.00
9943;DHT22;5010;45.080;7.634;2023-02-28T01:05:08;19.80;1.00
9943;DHT22;5010;45.080;7.634;2023-02-28T01:07:35;19.80;1.00
9943;DHT22;5010;45.080;7.634;2023-02-28T01:10:02;19.80;1.00
9943;DHT22;5010;45.080;7.634;2023-02-28T01:12:29;19.80;1.00
9943;DHT22;5010;45.080;7.634;2023-02-28T01:14:55;19.80;1.00
9943;DHT22;5010;45.080;7.634;2023-02-28T01:17:22;19.80;1.00
9943;DHT22;5010;45.080;7.634;2023-02-28T01:19:49;19.80;1.00
9943;DHT22;5010;45.080;7.634;2023-02-28T01:22:17;19.80;1.00
9943;DHT22;5010;45.080;7.634;2023-02-28T01:24:44;19.80;1.00
9943;DHT22;5010;45.080;7.634;2023-02-28T01:27:11;19.80;1.00
9943;DHT22;5010;45.080;7.634;2023-02-28T01:29:38;19.70;1.00
9943;DHT22;5010;45.080;7.634;2023-02-28T01:32:04;19.70;1.00
9943;DHT22;5010;45.080;7.634;2023-02-28T01:34:31;19.70;1.00
9943;DHT22;5010;45.080;7.634;2023-02-28T01:36:58;19.70;1.00
9943;DHT22;5010;45.080;7.634;2023-02-28T01:39:26;19.70;1.00
9943;DHT22;5010;45.080;7.634;2023-02-28T01:41:53;19.70;1.00
9943;DHT22;5010;45.080;7.634;2023-02-28T01:44:58;19.70;1.00
9943;DHT22;5010;45.080;7.634;2023-02-28T01:47:27;19.70;1.00
9943;DHT22;5010;45.080;7.634;2023-02-28T01:49:54;19.60;1.00
9943;DHT22;5010;45.080;7.634;2023-02-28T01:52:22;19.60;1.00
9943;DHT22;5010;45.080;7.634;2023-02-28T01:54:55;19.60;1.00
9943;DHT22;5010;45.080;7.634;2023-02-28T01:57:25;19.60;1.00
9943;DHT22;5010;45.080;7.634;2023-02-28T01:59:56;19.60;1.00
9943;DHT22;5010;45.080;7.634;2023-02-28T02:02:25;19.60;1.00
9943;DHT22;5010;45.080;7.634;2023-02-28T02:04:55;19.60;1.00
9943;DHT22;5010;45.080;7.634;2023-02-28T02:07:23;19.60;1.00
9943;DHT22;5010;45.080;7.634;2023-02-28T02:10:00;19.60;1.00
9943;DHT22;5010;45.080;7.634;2023-02-28T02:12:33;19.60;1.00
9943;DHT22;5010;45.080;7.634;2023-02-28T02:15:10;19.50;1.00
9943;DHT22;5010;45.080;7.634;2023-02-28T02:17:41;19.50;1.00
9943;DHT22;5010;45.080;7.634;2023-02-28T02:23:29;19.50;1.00
9943;DHT22;5010;45.080;7.634;2023-02-28T02:26:09;19.50;1.00
9943;DHT22;5010;45.080;7.634;2023-02-28T02:28:58;19.50;1.00
9943;DHT22;5010;45.080;7.634;2023-02-28T02:31:55;19.50;1.00
9943;DHT22;5010;45.080;7.634;2023-02-28T02:34:46;19.40;1.00
9943;DHT22;5010;45.080;7.634;2023-02-28T02:37:24;19.40;1.00
9943;DHT22;5010;45.080;7.634;2023-02-28T02:40:02;19.40;1.00
9943;DHT22;5010;45.080;7.634;2023-02-28T02:42:35;19.40;1.00
9943;DHT22;5010;45.080;7.634;2023-02-28T02:45:07;19.40;1.00
9943;DHT22;5010;45.080;7.634;2023-02-28T02:47:35;19.40;1.00
9943;DHT22;5010;45.080;7.634;2023-02-28T02:50:08;19.40;1.00
9943;DHT22;5010;45.080;7.634;2023-02-28T02:52:40;19.40;1.00
9943;DHT22;5010;45.080;7.634;2023-02-28T02:55:09;19.40;1.00
9943;DHT22;5010;45.080;7.634;2023-02-28T02:57:42;19.40;1.00
9943;DHT22;5010;45.080;7.634;2023-02-28T03:00:12;19.40;1.00
9943;DHT22;5010;45.080;7.634;2023-02-28T03:02:41;19.40;1.00
9943;DHT22;5010;45.080;7.634;2023-02-28T03:05:16;19.40;1.00
9943;DHT22;5010;45.080;7.634;2023-02-28T03:07:45;19.40;1.00
9943;DHT22;5010;45.080;7.634;2023-02-28T03:10:33;19.40;1.00
9943;DHT22;5010;45.080;7.634;2023-02-28T03:16:13;19.30;1.00
9943;DHT22;5010;45.080;7.634;2023-02-28T03:18:50;19.30;1.00
9943;DHT22;5010;45.080;7.634;2023-02-28T03:21:26;19.30;1.00
9943;DHT22;5010;45.080;7.634;2023-02-28T03:24:01;19.30;1.00
9943;DHT22;5010;45.080;7.634;2023-02-28T03:26:31;19.30;1.00
9943;DHT22;5010;45.080;7.634;2023-02-28T03:29:04;19.30;1.00
9943;DHT22;5010;45.080;7.634;2023-02-28T03:31:35;19.30;1.00
9943;DHT22;5010;45.080;7.634;2023-02-28T03:34:08;19.30;1.00
9943;DHT22;5010;45.080;7.634;2023-02-28T03:36:39;19.30;1.00
9943;DHT22;5010;45.080;7.634;2023-02-28T03:39:13;19.20;1.00
9943;DHT22;5010;45.080;7.634;2023-02-28T03:41:43;19.30;1.00
9943;DHT22;5010;45.080;7.634;2023-02-28T03:44:16;19.20;1.00
9943;DHT22;5010;45.080;7.634;2023-02-28T03:46:48;19.20;1.00
9943;DHT22;5010;45.080;7.634;2023-02-28T03:49:21;19.20;1.00
9943;DHT22;5010;45.080;7.634;2023-02-28T03:51:51;19.20;1.00
9943;DHT22;5010;45.080;7.634;2023-02-28T03:54:21;19.20;1.00
9943;DHT22;5010;45.080;7.634;2023-02-28T03:56:52;19.20;1.00
9943;DHT22;5010;45.080;7.634;2023-02-28T03:59:23;19.20;1.00
9943;DHT22;5010;45.080;7.634;2023-02-28T04:01:52;19.20;1.00
9943;DHT22;5010;45.080;7.634;2023-02-28T04:04:20;19.20;1.00
9943;DHT22;5010;45.080;7.634;2023-02-28T04:06:51;19.20;1.00
9943;DHT22;5010;45.080;7.634;2023-02-28T04:09:19;19.10;1.00
9943;DHT22;5010;45.080;7.634;2023-02-28T04:11:48;19.10;1.00
9943;DHT22;5010;45.080;7.634;2023-02-28T04:14:18;19.10;1.00
9943;DHT22;5010;45.080;7.634;2023-02-28T04:16:45;19.10;1.00
9943;DHT22;5010;45.080;7.634;2023-02-28T04:19:13;19.10;1.00
9943;DHT22;5010;45.080;7.634;2023-02-28T04:21:42;19.10;1.00
9943;DHT22;5010;45.080;7.634;2023-02-28T04:24:13;19.20;1.00
9943;DHT22;5010;45.080;7.634;2023-02-28T04:26:42;19.10;1.00
9943;DHT22;5010;45.080;7.634;2023-02-28T04:29:11;19.20;1.00
9943;DHT22;5010;45.080;7.634;2023-02-28T04:31:38;19.20;1.00
9943;DHT22;5010;45.080;7.634;2023-02-28T04:34:05;19.20;1.00
9943;DHT22;5010;45.080;7.634;2023-02-28T04:36:32;19.20;1.00
9943;DHT22;5010;45.080;7.634;2023-02-28T04:38:59;19.20;1.00
9943;DHT22;5010;45.080;7.634;2023-02-28T04:41:27;19.20;1.00
9943;DHT22;5010;45.080;7.634;2023-02-28T04:43:54;19.20;1.00
9943;DHT22;5010;45.080;7.634;2023-02-28T04:46:21;19.20;1.00
9943;DHT22;5010;45.080;7.634;2023-02-28T04:48:49;19.30;1.00
9943;DHT22;5010;45.080;7.634;2023-02-28T04:51:17;19.30;1.00
9943;DHT22;5010;45.080;7.634;2023-02-28T04:53:46;19.30;1.00
9943;DHT22;5010;45.080;7.634;2023-02-28T04:56:14;19.30;1.00
9943;DHT22;5010;45.080;7.634;2023-02-28T04:58:43;19.30;1.00
9943;DHT22;5010;45.080;7.634;2023-02-28T05:01:18;19.30;1.00
9943;DHT22;5010;45.080;7.634;2023-02-28T05:03:45;19.30;1.00
9943;DHT22;5010;45.080;7.634;2023-02-28T05:06:13;19.30;1.00
9943;DHT22;5010;45.080;7.634;2023-02-28T05:08:40;19.30;1.00
9943;DHT22;5010;45.080;7.634;2023-02-28T05:11:14;19.40;1.00
9943;DHT22;5010;45.080;7.634;2023-02-28T05:13:42;19.40;1.00
9943;DHT22;5010;45.080;7.634;2023-02-28T05:16:09;19.40;1.00
9943;DHT22;5010;45.080;7.634;2023-02-28T05:18:36;19.40;1.00
9943;DHT22;5010;45.080;7.634;2023-02-28T05:21:03;19.40;1.00
9943;DHT22;5010;45.080;7.634;2023-02-28T05:23:31;19.40;1.00
9943;DHT22;5010;45.080;7.634;2023-02-28T05:25:58;19.40;1.00
9943;DHT22;5010;45.080;7.634;2023-02-28T05:28:24;19.40;1.00
9943;DHT22;5010;45.080;7.634;2023-02-28T05:30:53;19.40;1.00
9943;DHT22;5010;45.080;7.634;2023-02-28T05:33:19;19.50;1.00
9943;DHT22;5010;45.080;7.634;2023-02-28T05:35:46;19.50;1.00
9943;DHT22;5010;45.080;7.634;2023-02-28T05:38:13;19.50;1.00
9943;DHT22;5010;45.080;7.634;2023-02-28T05:40:40;19.50;1.00
9943;DHT22;5010;45.080;7.634;2023-02-28T05:43:10;19.50;1.00
9943;DHT22;5010;45.080;7.634;2023-02-28T05:45:38;19.50;1.00
9943;DHT22;5010;45.080;7.634;2023-02-28T05:48:07;19.50;1.00
9943;DHT22;5010;45.080;7.634;2023-02-28T05:50:34;19.50;1.00
9943;DHT22;5010;45.080;7.634;2023-02-28T05:53:01;19.60;1.00
9943;DHT22;5010;45.080;7.634;2023-02-28T05:55:28;19.50;1.00
9943;DHT22;5010;45.080;7.634;2023-02-28T05:57:55;19.60;1.00
9943;DHT22;5010;45.080;7.634;2023-02-28T06:00:22;19.60;1.00
9943;DHT22;5010;45.080;7.634;2023-02-28T06:02:49;19.60;1.00
9943;DHT22;5010;45.080;7.634;2023-02-28T06:05:18;19.60;1.00
9943;DHT22;5010;45.080;7.634;2023-02-28T06:07:45;19.60;1.00
9943;DHT22;5010;45.080;7.634;2023-02-28T06:10:12;19.60;1.00
9943;DHT22;5010;45.080;7.634;2023-02-28T06:12:39;19.60;1.00
9943;DHT22;5010;45.080;7.634;2023-02-28T06:15:09;19.60;1.00
9943;DHT22;5010;45.080;7.634;2023-02-28T06:17:37;19.60;1.00
9943;DHT22;5010;45.080;7.634;2023-02-28T06:20:04;19.60;1.00
9943;DHT22;5010;45.080;7.634;2023-02-28T06:22:33;19.60;1.00
9943;DHT22;5010;45.080;7.634;2023-02-28T06:24:59;19.60;1.00
9943;DHT22;5010;45.080;7.634;2023-02-28T06:27:26;19.70;1.00
9943;DHT22;5010;45.080;7.634;2023-02-28T06:29:54;19.70;1.00
9943;DHT22;5010;45.080;7.634;2023-02-28T06:32:21;19.70;1.00
9943;DHT22;5010;45.080;7.634;2023-02-28T06:34:48;19.70;1.00
9943;DHT22;5010;45.080;7.634;2023-02-28T06:37:16;19.70;1.00
9943;DHT22;5010;45.080;7.634;2023-02-28T06:39:44;19.70;1.00
9943;DHT22;5010;45.080;7.634;2023-02-28T06:42:11;19.70;1.00
9943;DHT22;5010;45.080;7.634;2023-02-28T06:44:38;19.70;1.00
9943;DHT22;5010;45.080;7.634;2023-02-28T06:47:07;19.80;1.00
9943;DHT22;5010;45.080;7.634;2023-02-28T06:49:34;19.80;1.00
9943;DHT22;5010;45.080;7.634;2023-02-28T06:52:02;19.80;1.00
9943;DHT22;5010;45.080;7.634;2023-02-28T06:54:29;19.80;1.00
9943;DHT22;5010;45.080;7.634;2023-02-28T06:56:57;19.80;1.00
9943;DHT22;5010;45.080;7.634;2023-02-28T06:59:24;19.80;1.00
9943;DHT22;5010;45.080;7.634;2023-02-28T07:01:51;19.80;1.00
9943;DHT22;5010;45.080;7.634;2023-02-28T07:04:18;19.80;1.00
9943;DHT22;5010;45.080;7.634;2023-02-28T07:06:45;19.80;1.00
9943;DHT22;5010;45.080;7.634;2023-02-28T07:09:12;19.80;1.00
9943;DHT22;5010;45.080;7.634;2023-02-28T07:11:40;19.80;1.00
9943;DHT22;5010;45.080;7.634;2023-02-28T07:14:09;19.80;1.00
9943;DHT22;5010;45.080;7.634;2023-02-28T07:16:36;19.80;1.00
9943;DHT22;5010;45.080;7.634;2023-02-28T07:19:03;19.80;1.00
9943;DHT22;5010;45.080;7.634;2023-02-28T07:21:30;19.90;1.00
9943;DHT22;5010;45.080;7.634;2023-02-28T07:23:57;19.90;1.00
9943;DHT22;5010;45.080;7.634;2023-02-28T07:26:23;19.90;1.00
9943;DHT22;5010;45.080;7.634;2023-02-28T07:28:50;19.90;1.00
9943;DHT22;5010;45.080;7.634;2023-02-28T07:31:19;19.90;1.00
9943;DHT22;5010;45.080;7.634;2023-02-28T07:33:46;19.90;1.00
9943;DHT22;5010;45.080;7.634;2023-02-28T07:36:15;19.90;1.00
9943;DHT22;5010;45.080;7.634;2023-02-28T07:38:45;20.00;1.00
9943;DHT22;5010;45.080;7.634;2023-02-28T07:41:14;20.00;1.00
9943;DHT22;5010;45.080;7.634;2023-02-28T07:43:42;20.00;1.00
9943;DHT22;5010;45.080;7.634;2023-02-28T07:46:11;20.00;1.00
9943;DHT22;5010;45.080;7.634;2023-02-28T07:48:41;20.00;1.00
9943;DHT22;5010;45.080;7.634;2023-02-28T07:51:09;20.00;1.00
9943;DHT22;5010;45.080;7.634;2023-02-28T07:53:36;20.00;1.00
9943;DHT22;5010;45.080;7.634;2023-02-28T07:56:03;20.00;1.00
9943;DHT22;5010;45.080;7.634;2023-02-28T07:58:30;20.00;1.00
9943;DHT22;5010;45.080;7.634;2023-02-28T08:00:57;20.00;1.00
9943;DHT22;5010;45.080;7.634;2023-02-28T08:03:31;20.00;1.00
9943;DHT22;5010;45.080;7.634;2023-02-28T08:05:59;20.00;1.00
9943;DHT22;5010;45.080;7.634;2023-02-28T08:08:27;20.00;1.00
9943;DHT22;5010;45.080;7.634;2023-02-28T08:10:58;20.10;1.00
9943;DHT22;5010;45.080;7.634;2023-02-28T08:13:26;20.10;1.00
9943;DHT22;5010;45.080;7.634;2023-02-28T08:15:53;20.10;1.00
9943;DHT22;5010;45.080;7.634;2023-02-28T08:18:20;20.10;1.00
9943;DHT22;5010;45.080;7.634;2023-02-28T08:20:47;20.20;1.00
9943;DHT22;5010;45.080;7.634;2023-02-28T08:23:15;20.20;1.00
9943;DHT22;5010;45.080;7.634;2023-02-28T08:25:42;20.20;1.00
9943;DHT22;5010;45.080;7.634;2023-02-28T08:28:09;20.20;1.00
9943;DHT22;5010;45.080;7.634;2023-02-28T08:30:36;20.20;1.00
9943;DHT22;5010;45.080;7.634;2023-02-28T08:33:06;20.20;1.00
9943;DHT22;5010;45.080;7.634;2023-02-28T08:35:35;20.20;1.00
9943;DHT22;5010;45.080;7.634;2023-02-28T08:38:02;20.20;1.00
9943;DHT22;5010;45.080;7.634;2023-02-28T08:40:30;20.10;1.00
9943;DHT22;5010;45.080;7.634;2023-02-28T08:42:57;20.20;1.00
9943;DHT22;5010;45.080;7.634;2023-02-28T08:45:25;20.20;1.00
9943;DHT22;5010;45.080;7.634;2023-02-28T08:47:53;20.20;1.00
9943;DHT22;5010;45.080;7.634;2023-02-28T08:50:20;20.20;1.00
9943;DHT22;5010;45.080;7.634;2023-02-28T08:52:47;20.20;1.00
9943;DHT22;5010;45.080;7.634;2023-02-28T08:55:14;20.20;1.00
9943;DHT22;5010;45.080;7.634;2023-02-28T08:57:42;20.20;1.00
9943;DHT22;5010;45.080;7.634;2023-02-28T09:00:10;20.20;1.00
9943;DHT22;5010;45.080;7.634;2023-02-28T09:02:39;20.20;1.00
9943;DHT22;5010;45.080;7.634;2023-02-28T09:05:06;20.20;1.00
9943;DHT22;5010;45.080;7.634;2023-02-28T09:07:34;20.20;1.00
9943;DHT22;5010;45.080;7.634;2023-02-28T09:10:01;20.20;1.00
9943;DHT22;5010;45.080;7.634;2023-02-28T09:12:32;20.20;1.00
9943;DHT22;5010;45.080;7.634;2023-02-28T09:15:01;20.20;1.00
9943;DHT22;5010;45.080;7.634;2023-02-28T09:17:28;20.20;1.00
9943;DHT22;5010;45.080;7.634;2023-02-28T09:19:54;20.20;1.00
9943;DHT22;5010;45.080;7.634;2023-02-28T09:22:22;20.20;1.00
9943;DHT22;5010;45.080;7.634;2023-02-28T09:24:49;20.20;1.00
9943;DHT22;5010;45.080;7.634;2023-02-28T09:27:16;20.10;1.00
9943;DHT22;5010;45.080;7.634;2023-02-28T09:29:43;20.00;1.00
9943;DHT22;5010;45.080;7.634;2023-02-28T09:32:11;20.00;1.00
9943;DHT22;5010;45.080;7.634;2023-02-28T09:34:38;20.00;1.00
9943;DHT22;5010;45.080;7.634;2023-02-28T09:37:04;20.00;1.00
9943;DHT22;5010;45.080;7.634;2023-02-28T09:39:31;20.00;1.00
9943;DHT22;5010;45.080;7.634;2023-02-28T09:41:58;20.00;1.00
9943;DHT22;5010;45.080;7.634;2023-02-28T09:44:29;20.00;1.00
9943;DHT22;5010;45.080;7.634;2023-02-28T09:46:59;20.00;1.00
9943;DHT22;5010;45.080;7.634;2023-02-28T09:49:35;20.10;1.00
9943;DHT22;5010;45.080;7.634;2023-02-28T09:52:06;20.10;1.00
9943;DHT22;5010;45.080;7.634;2023-02-28T09:54:36;20.00;1.00
9943;DHT22;5010;45.080;7.634;2023-02-28T09:57:07;20.00;1.00
9943;DHT22;5010;45.080;7.634;2023-02-28T09:59:46;20.00;1.00
9943;DHT22;5010;45.080;7.634;2023-02-28T10:02:28;20.00;1.00
9943;DHT22;5010;45.080;7.634;2023-02-28T10:05:08;20.00;1.00
9943;DHT22;5010;45.080;7.634;2023-02-28T10:10:29;20.00;1.00
9943;DHT22;5010;45.080;7.634;2023-02-28T10:13:01;20.00;1.00
9943;DHT22;5010;45.080;7.634;2023-02-28T10:15:32;20.00;1.00
9943;DHT22;5010;45.080;7.634;2023-02-28T10:18:03;20.00;1.00
9943;DHT22;5010;45.080;7.634;2023-02-28T10:20:34;20.00;1.00
9943;DHT22;5010;45.080;7.634;2023-02-28T10:23:05;20.00;1.00
9943;DHT22;5010;45.080;7.634;2023-02-28T10:25:37;20.00;1.00
9943;DHT22;5010;45.080;7.634;2023-02-28T10:28:12;20.00;1.00
9943;DHT22;5010;45.080;7.634;2023-02-28T10:30:41;20.00;1.00
9943;DHT22;5010;45.080;7.634;2023-02-28T10:33:18;20.00;1.00
9943;DHT22;5010;45.080;7.634;2023-02-28T10:35:47;20.00;1.00
9943;DHT22;5010;45.080;7.634;2023-02-28T10:38:17;20.00;1.00
9943;DHT22;5010;45.080;7.634;2023-02-28T10:40:45;20.00;1.00
9943;DHT22;5010;45.080;7.634;2023-02-28T10:43:21;20.00;1.00
9943;DHT22;5010;45.080;7.634;2023-02-28T10:46:01;20.00;1.00
9943;DHT22;5010;45.080;7.634;2023-02-28T10:48:34;20.00;1.00
9943;DHT22;5010;45.080;7.634;2023-02-28T10:51:05;20.00;1.00
9943;DHT22;5010;45.080;7.634;2023-02-28T10:53:36;20.00;1.00
9943;DHT22;5010;45.080;7.634;2023-02-28T10:56:05;20.00;1.00
9943;DHT22;5010;45.080;7.634;2023-02-28T10:58:46;20.00;1.00
9943;DHT22;5010;45.080;7.634;2023-02-28T11:01:15;20.00;1.00
9943;DHT22;5010;45.080;7.634;2023-02-28T11:03:42;20.00;1.00
9943;DHT22;5010;45.080;7.634;2023-02-28T11:06:16;20.10;1.00
9943;DHT22;5010;45.080;7.634;2023-02-28T11:08:49;20.10;1.00
9943;DHT22;5010;45.080;7.634;2023-02-28T11:11:17;20.10;1.00
9943;DHT22;5010;45.080;7.634;2023-02-28T11:13:46;20.20;1.00
9943;DHT22;5010;45.080;7.634;2023-02-28T11:16:15;20.20;1.00
9943;DHT22;5010;45.080;7.634;2023-02-28T11:18:48;20.20;1.00
9943;DHT22;5010;45.080;7.634;2023-02-28T11:21:19;20.20;1.00
9943;DHT22;5010;45.080;7.634;2023-02-28T11:23:47;20.20;1.00
9943;DHT22;5010;45.080;7.634;2023-02-28T11:26:17;20.30;1.00
9943;DHT22;5010;45.080;7.634;2023-02-28T11:29:09;20.20;1.00
9943;DHT22;5010;45.080;7.634;2023-02-28T11:31:36;20.30;1.00
9943;DHT22;5010;45.080;7.634;2023-02-28T11:34:23;20.30;1.00
9943;DHT22;5010;45.080;7.634;2023-02-28T11:36:52;20.30;1.00
9943;DHT22;5010;45.080;7.634;2023-02-28T11:39:19;20.30;1.00
9943;DHT22;5010;45.080;7.634;2023-02-28T11:42:02;20.30;1.00
9943;DHT22;5010;45.080;7.634;2023-02-28T11:44:41;20.30;1.00
9943;DHT22;5010;45.080;7.634;2023-02-28T11:47:15;20.30;1.00
9943;DHT22;5010;45.080;7.634;2023-02-28T11:49:53;20.30;1.00
9943;DHT22;5010;45.080;7.634;2023-02-28T11:52:37;20.30;1.00
9943;DHT22;5010;45.080;7.634;2023-02-28T11:55:15;20.30;1.00
9943;DHT22;5010;45.080;7.634;2023-02-28T11:58:01;20.30;1.00
9943;DHT22;5010;45.080;7.634;2023-02-28T12:00:40;20.30;1.00
9943;DHT22;5010;45.080;7.634;2023-02-28T12:03:19;20.40;1.00
9943;DHT22;5010;45.080;7.634;2023-02-28T12:05:55;20.40;1.00
9943;DHT22;5010;45.080;7.634;2023-02-28T12:08:44;20.40;1.00
9943;DHT22;5010;45.080;7.634;2023-02-28T12:11:20;20.40;1.00
9943;DHT22;5010;45.080;7.634;2023-02-28T12:14:01;20.40;1.00
9943;DHT22;5010;45.080;7.634;2023-02-28T12:16:48;20.40;1.00
9943;DHT22;5010;45.080;7.634;2023-02-28T12:19:23;20.40;1.00
9943;DHT22;5010;45.080;7.634;2023-02-28T12:27:44;20.40;1.00
9943;DHT22;5010;45.080;7.634;2023-02-28T12:30:17;20.50;1.00
9943;DHT22;5010;45.080;7.634;2023-02-28T12:32:48;20.50;1.00
9943;DHT22;5010;45.080;7.634;2023-02-28T12:35:19;20.50;1.00
9943;DHT22;5010;45.080;7.634;2023-02-28T12:37:52;20.50;1.00
9943;DHT22;5010;45.080;7.634;2023-02-28T12:40:25;20.50;1.00
9943;DHT22;5010;45.080;7.634;2023-02-28T12:42:57;20.50;1.00
9943;DHT22;5010;45.080;7.634;2023-02-28T12:45:27;20.50;1.00
9943;DHT22;5010;45.080;7.634;2023-02-28T12:48:00;20.50;1.00
9943;DHT22;5010;45.080;7.634;2023-02-28T12:50:28;20.50;1.00
9943;DHT22;5010;45.080;7.634;2023-02-28T12:53:00;20.50;1.00
9943;DHT22;5010;45.080;7.634;2023-02-28T12:55:37;20.40;1.00
9943;DHT22;5010;45.080;7.634;2023-02-28T12:58:12;20.50;1.00
9943;DHT22;5010;45.080;7.634;2023-02-28T13:04:00;20.40;1.00
9943;DHT22;5010;45.080;7.634;2023-02-28T13:06:44;20.50;1.00
9943;DHT22;5010;45.080;7.634;2023-02-28T13:11:46;20.40;1.00
9943;DHT22;5010;45.080;7.634;2023-02-28T13:14:22;20.50;1.00
9943;DHT22;5010;45.080;7.634;2023-02-28T13:16:59;20.40;1.00
9943;DHT22;5010;45.080;7.634;2023-02-28T13:19:28;20.50;1.00
9943;DHT22;5010;45.080;7.634;2023-02-28T13:21:57;20.50;1.00
9943;DHT22;5010;45.080;7.634;2023-02-28T13:24:45;20.50;1.00
9943;DHT22;5010;45.080;7.634;2023-02-28T13:27:35;20.50;1.00
9943;DHT22;5010;45.080;7.634;2023-02-28T13:33:27;20.50;1.00
9943;DHT22;5010;45.080;7.634;2023-02-28T13:36:22;20.40;1.00
9943;DHT22;5010;45.080;7.634;2023-02-28T13:38:50;20.40;1.00
9943;DHT22;5010;45.080;7.634;2023-02-28T13:41:46;20.40;1.00
9943;DHT22;5010;45.080;7.634;2023-02-28T13:44:17;20.40;1.00
9943;DHT22;5010;45.080;7.634;2023-02-28T13:47:19;20.40;1.00
9943;DHT22;5010;45.080;7.634;2023-02-28T13:49:48;20.40;1.00
9943;DHT22;5010;45.080;7.634;2023-02-28T13:52:19;20.40;1.00
9943;DHT22;5010;45.080;7.634;2023-02-28T13:57:45;20.40;1.00
9943;DHT22;5010;45.080;7.634;2023-02-28T14:00:23;20.40;1.00
9943;DHT22;5010;45.080;7.634;2023-02-28T14:03:23;20.40;1.00
9943;DHT22;5010;45.080;7.634;2023-02-28T14:06:16;20.40;1.00
9943;DHT22;5010;45.080;7.634;2023-02-28T14:08:52;20.40;1.00
9943;DHT22;5010;45.080;7.634;2023-02-28T14:11:32;20.40;1.00
9943;DHT22;5010;45.080;7.634;2023-02-28T14:14:00;20.30;1.00
9943;DHT22;5010;45.080;7.634;2023-02-28T14:16:37;20.30;1.00
9943;DHT22;5010;45.080;7.634;2023-02-28T14:19:12;20.30;1.00
9943;DHT22;5010;45.080;7.634;2023-02-28T14:21:48;20.30;1.00
9943;DHT22;5010;45.080;7.634;2023-02-28T14:27:36;20.30;1.00
9943;DHT22;5010;45.080;7.634;2023-02-28T14:33:22;20.20;1.00
9943;DHT22;5010;45.080;7.634;2023-02-28T14:36:04;20.10;1.00
9943;DHT22;5010;45.080;7.634;2023-02-28T14:38:36;20.10;1.00
9943;DHT22;5010;45.080;7.634;2023-02-28T14:41:19;20.10;1.00
9943;DHT22;5010;45.080;7.634;2023-02-28T14:43:52;20.00;1.00
9943;DHT22;5010;45.080;7.634;2023-02-28T14:46:20;20.00;1.00
9943;DHT22;5010;45.080;7.634;2023-02-28T14:48:49;20.00;1.00
9943;DHT22;5010;45.080;7.634;2023-02-28T14:51:21;19.90;1.00
9943;DHT22;5010;45.080;7.634;2023-02-28T14:53:50;19.90;1.00
9943;DHT22;5010;45.080;7.634;2023-02-28T14:56:22;19.90;1.00
9943;DHT22;5010;45.080;7.634;2023-02-28T14:58:54;19.80;1.00
9943;DHT22;5010;45.080;7.634;2023-02-28T15:01:22;19.80;1.00
9943;DHT22;5010;45.080;7.634;2023-02-28T15:03:59;19.80;1.00
9943;DHT22;5010;45.080;7.634;2023-02-28T15:06:27;19.80;1.00
9943;DHT22;5010;45.080;7.634;2023-02-28T15:09:16;19.80;1.00
9943;DHT22;5010;45.080;7.634;2023-02-28T15:11:47;19.70;1.00
9943;DHT22;5010;45.080;7.634;2023-02-28T15:14:20;19.70;1.00
9943;DHT22;5010;45.080;7.634;2023-02-28T15:16:51;19.70;1.00
9943;DHT22;5010;45.080;7.634;2023-02-28T15:19:23;19.60;1.00
9943;DHT22;5010;45.080;7.634;2023-02-28T15:21:54;19.60;1.00
9943;DHT22;5010;45.080;7.634;2023-02-28T15:24:34;19.60;1.00
9943;DHT22;5010;45.080;7.634;2023-02-28T15:27:05;19.60;1.00
9943;DHT22;5010;45.080;7.634;2023-02-28T15:29:42;19.60;1.00
9943;DHT22;5010;45.080;7.634;2023-02-28T15:32:27;19.60;1.00
9943;DHT22;5010;45.080;7.634;2023-02-28T15:34:56;19.60;1.00
9943;DHT22;5010;45.080;7.634;2023-02-28T15:37:38;19.50;1.00
9943;DHT22;5010;45.080;7.634;2023-02-28T15:40:13;19.50;1.00
9943;DHT22;5010;45.080;7.634;2023-02-28T15:42:40;19.50;1.00
9943;DHT22;5010;45.080;7.634;2023-02-28T15:45:33;19.50;1.00
9943;DHT22;5010;45.080;7.634;2023-02-28T15:48:03;19.50;1.00
9943;DHT22;5010;45.080;7.634;2023-02-28T15:50:31;19.40;1.00
9943;DHT22;5010;45.080;7.634;2023-02-28T15:53:00;19.40;1.00
9943;DHT22;5010;45.080;7.634;2023-02-28T15:55:30;19.40;1.00
9943;DHT22;5010;45.080;7.634;2023-02-28T15:58:00;19.40;1.00
9943;DHT22;5010;45.080;7.634;2023-02-28T16:00:30;19.30;1.00
9943;DHT22;5010;45.080;7.634;2023-02-28T16:02:58;19.30;1.00
9943;DHT22;5010;45.080;7.634;2023-02-28T16:05:27;19.30;1.00
9943;DHT22;5010;45.080;7.634;2023-02-28T16:07:59;19.30;1.00
9943;DHT22;5010;45.080;7.634;2023-02-28T16:10:28;19.30;1.00
9943;DHT22;5010;45.080;7.634;2023-02-28T16:12:56;19.30;1.00
9943;DHT22;5010;45.080;7.634;2023-02-28T16:15:25;19.30;1.00
9943;DHT22;5010;45.080;7.634;2023-02-28T16:17:54;19.30;1.00
9943;DHT22;5010;45.080;7.634;2023-02-28T16:20:24;19.30;1.00
9943;DHT22;5010;45.080;7.634;2023-02-28T16:22:52;19.30;1.00
9943;DHT22;5010;45.080;7.634;2023-02-28T16:25:23;19.30;1.00
9943;DHT22;5010;45.080;7.634;2023-02-28T16:27:52;19.30;1.00
9943;DHT22;5010;45.080;7.634;2023-02-28T16:30:22;19.30;1.00
9943;DHT22;5010;45.080;7.634;2023-02-28T16:32:50;19.20;1.00
9943;DHT22;5010;45.080;7.634;2023-02-28T16:35:17;19.20;1.00
9943;DHT22;5010;45.080;7.634;2023-02-28T16:37:44;19.20;1.00
9943;DHT22;5010;45.080;7.634;2023-02-28T16:40:14;19.20;1.00
9943;DHT22;5010;45.080;7.634;2023-02-28T16:42:44;19.20;1.00
9943;DHT22;5010;45.080;7.634;2023-02-28T16:45:17;19.20;1.00
9943;DHT22;5010;45.080;7.634;2023-02-28T16:47:46;19.20;1.00
9943;DHT22;5010;45.080;7.634;2023-02-28T16:50:15;19.20;1.00
9943;DHT22;5010;45.080;7.634;2023-02-28T16:52:43;19.20;1.00
9943;DHT22;5010;45.080;7.634;2023-02-28T16:55:10;19.10;1.00
9943;DHT22;5010;45.080;7.634;2023-02-28T16:57:37;19.10;1.00
9943;DHT22;5010;45.080;7.634;2023-02-28T17:00:08;19.10;1.00
9943;DHT22;5010;45.080;7.634;2023-02-28T17:02:38;19.10;1.00
9943;DHT22;5010;45.080;7.634;2023-02-28T17:05:05;19.10;1.00
9943;DHT22;5010;45.080;7.634;2023-02-28T17:07:33;19.10;1.00
9943;DHT22;5010;45.080;7.634;2023-02-28T17:09:59;19.10;1.00
9943;DHT22;5010;45.080;7.634;2023-02-28T17:12:34;19.10;1.00
9943;DHT22;5010;45.080;7.634;2023-02-28T17:15:00;19.10;1.00